Time;durP1;ratioP1;P1;durP2;ratioP2;P2;SDS_P1;SDS_P2;PMS_P1;PMS_P2;Temp;Humidity;BMP_temperature;BMP_pressure;BME280_temperature;BME280_humidity;BME280_pressure;Samples;Min_cycle;Max_cycle;Signal;HPM_P1;HPM_P2
2021/10/25 00:01:06;;;;;;;22.13;12.82;;;;;;;5.16;65.87;96791.81;5025559;28;20427;-77
2021/10/25 00:03:32;;;;;;;22.20;12.98;;;;;;;5.15;65.94;96790.13;5025098;28;20022;-77
2021/10/25 00:05:57;;;;;;;21.65;13.55;;;;;;;5.07;65.77;96794.19;5024191;28;20033;-77
2021/10/25 00:08:23;;;;;;;22.02;13.55;;;;;;;5.02;66.61;96791.00;5025089;28;20018;-75
2021/10/25 00:10:48;;;;;;;18.15;11.40;;;;;;;5.07;66.08;96780.03;5024713;28;20030;-76
2021/10/25 00:13:14;;;;;;;21.77;12.32;;;;;;;5.13;66.20;96787.59;5024539;28;20029;-76
2021/10/25 00:15:39;;;;;;;21.20;12.10;;;;;;;5.16;66.21;96782.03;4992394;28;20057;-76
2021/10/25 00:18:05;;;;;;;17.42;11.45;;;;;;;5.03;67.08;96787.38;5027344;28;20071;-76
2021/10/25 00:20:31;;;;;;;20.60;12.00;;;;;;;5.01;66.28;96793.78;5028894;28;20040;-75
2021/10/25 00:22:56;;;;;;;22.15;11.10;;;;;;;5.03;66.57;96794.53;5027928;28;20030;-75
2021/10/25 00:25:22;;;;;;;19.33;10.68;;;;;;;5.05;66.89;96788.13;5012385;28;20028;-75
2021/10/25 00:27:47;;;;;;;18.70;10.98;;;;;;;5.10;67.04;96781.63;5028318;28;20026;-76
2021/10/25 00:30:13;;;;;;;18.75;9.95;;;;;;;5.09;66.40;96787.91;5028489;28;20025;-77
2021/10/25 00:32:39;;;;;;;16.30;8.82;;;;;;;5.11;66.23;96784.16;5028695;28;20028;-75
2021/10/25 00:35:04;;;;;;;14.70;9.23;;;;;;;5.10;66.80;96778.97;5011439;28;20029;-74
2021/10/25 00:37:30;;;;;;;16.50;9.82;;;;;;;5.06;67.50;96784.50;5028554;28;20033;-75
2021/10/25 00:39:55;;;;;;;15.70;9.15;;;;;;;5.08;67.28;96787.03;5011270;28;20053;-75
2021/10/25 00:42:21;;;;;;;14.85;9.30;;;;;;;5.16;67.07;96787.34;5029879;28;20021;-76
2021/10/25 00:44:46;;;;;;;13.57;8.13;;;;;;;5.23;67.35;96794.91;5029251;28;20033;-75
2021/10/25 00:47:12;;;;;;;12.98;7.75;;;;;;;5.24;67.39;96794.78;5029498;28;20029;-76
2021/10/25 00:49:37;;;;;;;16.35;8.18;;;;;;;5.23;66.82;96790.44;5029564;28;20557;-76
2021/10/25 00:52:03;;;;;;;17.58;7.70;;;;;;;5.26;67.60;96792.88;5027841;28;20038;-75
2021/10/25 00:54:28;;;;;;;12.00;7.35;;;;;;;5.31;67.09;96782.75;5028475;28;20030;-74
2021/10/25 00:56:54;;;;;;;12.43;6.88;;;;;;;5.28;67.06;96788.31;5011522;28;20135;-76
2021/10/25 00:59:19;;;;;;;13.98;8.07;;;;;;;5.21;65.94;96789.69;5011416;28;20018;-75
2021/10/25 01:01:45;;;;;;;15.15;9.55;;;;;;;5.05;65.47;96788.13;5028875;28;20029;-75
2021/10/25 01:04:11;;;;;;;15.63;8.68;;;;;;;4.97;65.24;96782.50;5029080;28;20033;-76
2021/10/25 01:06:39;;;;;;;15.68;8.75;;;;;;;4.87;65.86;96782.28;5027331;28;20077;-77
2021/10/25 01:09:06;;;;;;;16.05;9.82;;;;;;;4.72;64.63;96778.91;5027662;28;20041;-76
2021/10/25 01:11:31;;;;;;;20.15;10.23;;;;;;;4.58;65.08;96778.06;5011652;28;20032;-76
2021/10/25 01:13:57;;;;;;;18.27;10.35;;;;;;;4.56;64.73;96779.97;5027395;28;20025;-75
2021/10/25 01:16:22;;;;;;;17.00;9.82;;;;;;;4.48;65.22;96784.97;5011394;28;20029;-75
2021/10/25 01:18:49;;;;;;;18.42;10.13;;;;;;;4.44;65.36;96786.13;5028530;28;20021;-74
2021/10/25 01:21:15;;;;;;;15.07;9.13;;;;;;;4.38;65.75;96786.56;5028975;28;20029;-76
2021/10/25 01:23:40;;;;;;;16.88;9.27;;;;;;;4.38;66.30;96791.88;5027079;28;20026;-75
2021/10/25 01:26:06;;;;;;;16.33;9.20;;;;;;;4.39;66.52;96788.25;5028710;28;20033;-75
2021/10/25 01:28:31;;;;;;;16.60;9.45;;;;;;;4.29;66.71;96783.56;5010550;28;20087;-74
2021/10/25 01:30:57;;;;;;;18.80;10.18;;;;;;;4.22;66.33;96784.94;5028677;28;20415;-75
2021/10/25 01:33:23;;;;;;;13.82;9.40;;;;;;;4.26;67.02;96788.22;5028691;28;20496;-76
2021/10/25 01:35:48;;;;;;;17.00;9.60;;;;;;;4.24;67.08;96788.34;5027038;28;20029;-75
2021/10/25 01:38:14;;;;;;;14.75;9.32;;;;;;;4.20;66.45;96785.06;5027169;28;20564;-74
2021/10/25 01:40:39;;;;;;;15.18;9.57;;;;;;;4.14;66.53;96785.47;5028141;28;20087;-75
2021/10/25 01:43:05;;;;;;;15.60;8.90;;;;;;;4.09;66.12;96784.94;5027327;28;20502;-75
2021/10/25 01:45:31;;;;;;;20.05;10.57;;;;;;;3.98;65.92;96787.44;5010067;28;20025;-74
2021/10/25 01:47:56;;;;;;;16.25;9.25;;;;;;;3.91;65.91;96787.84;5027310;28;20541;-74
2021/10/25 01:50:23;;;;;;;16.00;9.07;;;;;;;3.90;66.25;96783.47;5027549;28;20565;-75
2021/10/25 01:52:49;;;;;;;20.08;9.63;;;;;;;3.93;67.06;96777.97;5010383;28;20538;-78
2021/10/25 01:55:14;;;;;;;16.35;9.20;;;;;;;3.94;67.46;96785.00;5027007;28;20057;-74
2021/10/25 01:57:40;;;;;;;17.60;9.63;;;;;;;3.93;68.27;96777.97;5027661;28;20025;-73
2021/10/25 02:00:06;;;;;;;15.70;8.30;;;;;;;4.06;68.00;96780.66;5026823;28;20030;-75
2021/10/25 02:02:31;;;;;;;19.85;9.07;;;;;;;4.11;67.94;96776.84;5027618;28;20021;-74
2021/10/25 02:04:58;;;;;;;15.43;9.00;;;;;;;4.10;68.15;96785.75;5028253;28;20026;-74
2021/10/25 02:07:23;;;;;;;17.15;9.10;;;;;;;4.11;67.09;96783.00;5027538;28;20329;-74
2021/10/25 02:09:49;;;;;;;15.25;9.07;;;;;;;4.00;67.29;96782.88;5026682;28;20029;-75
2021/10/25 02:12:15;;;;;;;15.98;8.60;;;;;;;3.97;66.58;96778.63;5010335;28;20072;-75
2021/10/25 02:14:41;;;;;;;18.50;9.13;;;;;;;3.94;66.17;96784.13;5009656;28;20483;-75
2021/10/25 02:17:06;;;;;;;16.63;9.25;;;;;;;3.93;66.39;96777.13;4993895;28;20033;-74
2021/10/25 02:19:32;;;;;;;15.40;9.05;;;;;;;3.87;66.09;96782.84;5025913;28;20407;-75
2021/10/25 02:21:57;;;;;;;17.10;9.48;;;;;;;3.88;66.48;96780.09;5010110;28;20399;-75
2021/10/25 02:24:23;;;;;;;13.20;7.30;;;;;;;3.91;68.00;96782.53;5009411;28;20439;-74
2021/10/25 02:26:48;;;;;;;17.00;7.85;;;;;;;3.98;67.63;96780.34;5027781;28;20029;-74
2021/10/25 02:29:14;;;;;;;14.18;7.10;;;;;;;4.07;68.70;96774.41;5026494;28;20029;-73
2021/10/25 02:31:40;;;;;;;10.50;6.53;;;;;;;4.18;69.56;96778.13;5009512;28;20034;-74
2021/10/25 02:34:05;;;;;;;9.93;6.20;;;;;;;4.29;69.50;96769.44;5027847;28;20107;-75
2021/10/25 02:36:31;;;;;;;11.43;6.30;;;;;;;4.40;69.32;96774.03;5009192;28;20017;-76
2021/10/25 02:38:56;;;;;;;10.18;5.90;;;;;;;4.51;69.58;96774.16;5026205;28;20495;-76
2021/10/25 02:41:21;;;;;;;8.98;5.78;;;;;;;4.60;69.69;96763.81;5026399;28;20282;-75
2021/10/25 02:43:47;;;;;;;10.18;5.72;;;;;;;4.74;68.49;96771.66;5027251;28;20036;-76
2021/10/25 02:46:13;;;;;;;9.40;5.72;;;;;;;4.90;68.19;96767.94;5027101;28;20021;-75
2021/10/25 02:48:39;;;;;;;11.63;5.57;;;;;;;4.91;68.94;96767.84;5027070;28;20021;-75
2021/10/25 02:51:05;;;;;;;11.50;5.97;;;;;;;4.95;68.23;96769.31;5009860;28;20033;-76
2021/10/25 02:53:30;;;;;;;13.50;6.70;;;;;;;4.99;68.60;96775.28;5025524;28;20026;-74
2021/10/25 02:55:56;;;;;;;13.10;7.50;;;;;;;5.09;68.27;96771.94;5026061;28;20483;-74
2021/10/25 02:58:21;;;;;;;12.05;6.85;;;;;;;5.10;68.47;96763.00;5026622;28;20538;-74
2021/10/25 03:00:47;;;;;;;14.55;7.53;;;;;;;5.15;68.35;96771.50;5026898;28;20514;-75
2021/10/25 03:03:12;;;;;;;13.32;7.43;;;;;;;5.18;68.42;96768.63;5025204;28;20087;-75
2021/10/25 03:05:38;;;;;;;13.88;8.18;;;;;;;5.28;67.70;96767.03;5026807;28;20021;-74
2021/10/25 03:08:04;;;;;;;16.35;8.45;;;;;;;5.34;67.70;96762.22;5025469;28;20112;-73
2021/10/25 03:10:29;;;;;;;15.50;8.52;;;;;;;5.32;67.63;96768.50;5026837;28;20028;-76
2021/10/25 03:12:55;;;;;;;15.77;7.82;;;;;;;5.32;67.77;96768.50;5025603;28;20030;-76
2021/10/25 03:15:20;;;;;;;11.50;6.90;;;;;;;5.40;67.29;96769.75;5008845;28;20021;-75
2021/10/25 03:17:46;;;;;;;14.75;6.93;;;;;;;5.39;66.95;96760.91;5008775;28;20029;-77
2021/10/25 03:20:12;;;;;;;11.35;6.40;;;;;;;5.36;66.28;96768.25;4992168;28;20112;-76
2021/10/25 03:22:37;;;;;;;10.05;6.35;;;;;;;5.32;67.31;96760.50;5009013;28;20028;-74
2021/10/25 03:25:04;;;;;;;10.18;6.40;;;;;;;5.34;66.64;96767.53;5025053;28;20026;-75
2021/10/25 03:27:29;;;;;;;8.93;5.88;;;;;;;5.36;67.07;96763.81;5008753;28;20018;-77
2021/10/25 03:29:55;;;;;;;14.20;5.72;;;;;;;5.40;66.61;96753.78;5008787;28;20075;-75
2021/10/25 03:32:21;;;;;;;11.15;6.63;;;;;;;5.43;66.06;96761.53;5008403;28;20021;-73
2021/10/25 03:34:46;;;;;;;9.15;6.03;;;;;;;5.41;66.43;96763.47;5008786;28;20032;-74
2021/10/25 03:37:12;;;;;;;11.43;6.85;;;;;;;5.40;66.42;96767.09;5024641;28;20029;-75
2021/10/25 03:39:39;;;;;;;11.35;6.45;;;;;;;5.37;67.16;96764.66;5026511;28;20032;-75
2021/10/25 03:42:12;;;;;;;14.02;7.00;;;;;;;5.34;67.29;96759.56;5025993;28;20025;-74
2021/10/25 03:44:51;;;;;;;10.75;6.50;;;;;;;5.36;66.35;96758.47;5026393;28;20413;-76
2021/10/25 03:47:28;;;;;;;12.60;6.78;;;;;;;5.36;66.68;96757.63;5025563;28;20574;-74
2021/10/25 03:50:14;;;;;;;10.68;7.03;;;;;;;5.25;67.73;96761.91;5009751;28;20032;-76
2021/10/25 04:30:33;;;;;;;12.40;7.40;;;;;;;5.04;67.79;96757.19;5009562;28;20128;-76
2021/10/25 04:32:59;;;;;;;11.80;7.28;;;;;;;5.12;67.92;96758.44;5024150;28;20025;-75
2021/10/25 04:35:24;;;;;;;12.13;7.65;;;;;;;5.13;68.11;96753.00;5024764;28;20022;-75
2021/10/25 04:37:50;;;;;;;9.35;6.90;;;;;;;5.16;67.14;96751.91;5025316;28;20045;-75
2021/10/25 04:40:15;;;;;;;12.93;7.45;;;;;;;5.16;67.47;96754.59;5025745;28;20373;-77
2021/10/25 04:42:41;;;;;;;16.92;7.78;;;;;;;5.17;67.31;96748.31;4991334;28;20056;-74
2021/10/25 04:45:07;;;;;;;15.10;9.18;;;;;;;5.12;67.71;96753.13;5024528;28;20038;-73
2021/10/25 04:47:32;;;;;;;16.38;10.05;;;;;;;5.14;67.83;96751.19;5024603;28;20060;-74
2021/10/25 04:49:57;;;;;;;16.42;11.05;;;;;;;5.10;68.55;96763.00;5024284;28;20025;-76
2021/10/25 04:52:23;;;;;;;17.40;10.82;;;;;;;5.11;68.06;96770.03;5025831;28;20087;-75
2021/10/25 04:54:48;;;;;;;15.38;10.40;;;;;;;5.06;69.12;96765.88;5025307;28;20079;-73
2021/10/25 04:57:14;;;;;;;15.95;10.98;;;;;;;5.06;68.78;96768.53;5024108;28;20030;-76
2021/10/25 04:59:39;;;;;;;15.25;9.85;;;;;;;5.10;69.05;96766.53;5025595;28;20037;-74
2021/10/25 05:02:05;;;;;;;15.88;9.45;;;;;;;5.04;69.31;96774.94;5024257;28;20025;-75
2021/10/25 05:04:31;;;;;;;14.77;9.23;;;;;;;5.06;69.25;96773.03;5027438;28;20075;-75
2021/10/25 05:06:57;;;;;;;17.98;9.60;;;;;;;5.12;68.02;96775.25;5028923;28;20072;-74
2021/10/25 05:09:22;;;;;;;15.43;10.02;;;;;;;5.14;68.89;96778.63;5029346;28;20025;-75
2021/10/25 05:11:48;;;;;;;16.40;10.23;;;;;;;5.16;67.91;96776.72;5011272;28;20032;-76
2021/10/25 05:14:13;;;;;;;15.18;10.40;;;;;;;5.22;68.49;96782.56;5027774;28;20029;-75
2021/10/25 05:16:39;;;;;;;19.02;10.30;;;;;;;5.29;68.08;96794.44;5028378;28;20025;-75
2021/10/25 05:19:04;;;;;;;16.13;10.57;;;;;;;5.30;67.75;96794.34;5027757;28;20029;-75
2021/10/25 05:21:30;;;;;;;17.02;9.90;;;;;;;5.32;67.60;96794.22;5010364;28;20025;-74
2021/10/25 05:23:55;;;;;;;22.65;10.00;;;;;;;5.32;68.00;96799.56;5027640;28;20033;-74
2021/10/25 05:26:21;;;;;;;17.67;9.48;;;;;;;5.40;67.65;96807.00;5028531;28;20021;-74
2021/10/25 05:28:46;;;;;;;13.15;9.27;;;;;;;5.42;67.18;96799.75;5029021;28;20065;-73
2021/10/25 05:31:12;;;;;;;17.77;8.15;;;;;;;5.46;67.49;96789.72;5029012;28;20036;-75
2021/10/25 05:33:40;;;;;;;15.80;7.93;;;;;;;5.55;66.68;96789.91;5028308;28;20385;-76
2021/10/25 05:36:09;;;;;;;15.75;9.02;;;;;;;5.62;66.23;96797.44;5011115;28;20028;-75
2021/10/25 05:38:35;;;;;;;16.33;9.10;;;;;;;5.64;66.77;96798.19;5010159;28;20033;-77
2021/10/25 05:41:01;;;;;;;16.52;10.02;;;;;;;5.69;66.10;96799.53;5027607;28;20013;-75
2021/10/25 05:43:27;;;;;;;21.60;10.00;;;;;;;5.79;65.82;96806.84;5026638;28;20040;-74
2021/10/25 05:45:52;;;;;;;17.50;9.68;;;;;;;5.96;65.35;96818.09;5028456;28;20033;-75
2021/10/25 05:48:18;;;;;;;15.95;9.70;;;;;;;6.10;65.05;96817.06;5027046;28;20033;-73
2021/10/25 05:50:44;;;;;;;20.13;9.40;;;;;;;6.20;64.66;96823.44;5028172;28;20087;-75
2021/10/25 05:53:10;;;;;;;17.02;9.70;;;;;;;6.30;64.71;96831.59;5029080;28;20030;-75
2021/10/25 05:55:37;;;;;;;19.60;10.25;;;;;;;6.41;63.62;96830.75;5027893;28;20029;-74
2021/10/25 05:58:04;;;;;;;20.85;10.93;;;;;;;6.43;63.74;96829.66;5028390;28;20039;-76
2021/10/25 06:00:33;;;;;;;15.82;10.38;;;;;;;6.57;63.12;96829.59;5026788;28;20385;-75
2021/10/25 06:02:59;;;;;;;19.20;10.63;;;;;;;6.67;63.51;96836.75;5026880;28;20056;-75
2021/10/25 06:05:27;;;;;;;21.25;10.55;;;;;;;6.68;62.79;96840.28;5026624;28;20037;-76
2021/10/25 06:07:53;;;;;;;20.85;10.32;;;;;;;6.88;62.86;96844.06;5027502;28;20116;-74
2021/10/25 06:10:20;;;;;;;21.13;9.50;;;;;;;7.11;61.86;96836.09;5026926;28;20040;-76
2021/10/25 06:12:48;;;;;;;16.50;9.40;;;;;;;7.23;61.33;96834.28;5027513;28;20121;-77
2021/10/25 06:15:18;;;;;;;16.88;9.48;;;;;;;7.40;61.13;96832.94;5009791;28;20028;-76
2021/10/25 06:17:52;;;;;;;12.98;9.00;;;;;;;7.62;61.04;96839.25;5010104;28;20037;-76
2021/10/25 06:20:29;;;;;;;15.45;9.20;;;;;;;7.83;60.64;96838.47;4995858;28;20026;-76
2021/10/25 06:22:56;;;;;;;13.30;8.52;;;;;;;7.96;60.50;96843.66;5026855;28;20029;-74
2021/10/25 06:25:22;;;;;;;15.93;9.07;;;;;;;8.11;60.41;96854.06;5026150;28;20566;-74
2021/10/25 06:27:48;;;;;;;14.48;8.32;;;;;;;8.32;60.48;96859.44;5027619;28;20060;-75
2021/10/25 06:30:14;;;;;;;12.48;7.72;;;;;;;8.59;59.38;96859.97;5025974;28;20045;-75
2021/10/25 06:32:40;;;;;;;11.68;7.88;;;;;;;8.67;58.77;96862.00;5026145;28;20021;-75
2021/10/25 06:35:07;;;;;;;11.98;7.53;;;;;;;8.88;58.25;96856.66;5009319;28;20419;-75
2021/10/25 06:38:10;;;;;;;12.43;7.53;;;;;;;9.03;57.71;96851.81;5009730;28;20025;-75
2021/10/25 06:40:26;;;;;;;12.23;7.85;;;;;;;9.12;57.83;96851.03;5027439;28;20041;-75
2021/10/25 06:42:52;;;;;;;11.07;7.22;;;;;;;9.20;57.06;96847.69;5026736;28;20108;-74
2021/10/25 06:45:20;;;;;;;13.27;7.38;;;;;;;9.30;57.38;96852.22;5026124;28;20087;-74
2021/10/25 06:47:45;;;;;;;12.07;7.53;;;;;;;9.30;57.14;96846.88;5025361;28;20022;-76
2021/10/25 06:50:11;;;;;;;13.10;8.18;;;;;;;9.23;57.37;96852.78;5009584;28;20113;-75
2021/10/25 06:52:37;;;;;;;19.13;8.05;;;;;;;9.35;57.25;96861.53;5026997;28;20370;-76
2021/10/25 06:55:04;;;;;;;10.52;7.90;;;;;;;9.47;57.15;96856.09;5027237;28;20415;-75
2021/10/25 06:57:29;;;;;;;11.82;7.78;;;;;;;9.56;56.77;96859.81;5026130;28;20105;-76
2021/10/25 06:59:55;;;;;;;13.60;8.60;;;;;;;9.59;56.09;96864.91;5026599;28;20416;-76
2021/10/25 07:02:20;;;;;;;14.68;8.45;;;;;;;9.70;56.04;96858.59;5026021;28;20476;-75
2021/10/25 07:04:47;;;;;;;13.25;8.25;;;;;;;9.68;55.61;96866.75;5008700;28;20030;-76
2021/10/25 07:07:13;;;;;;;13.05;8.55;;;;;;;9.71;55.92;96855.75;5009363;28;20084;-75
2021/10/25 07:09:38;;;;;;;12.75;9.20;;;;;;;9.80;55.84;96853.25;5024879;28;20496;-75
2021/10/25 07:12:04;;;;;;;13.55;8.23;;;;;;;9.87;55.10;96851.72;5009168;28;20032;-76
2021/10/25 07:14:35;;;;;;;11.50;8.07;;;;;;;9.81;54.93;96852.25;5026834;28;20017;-74
2021/10/25 07:59:30;;;;;;;12.90;8.60;;;;;;;9.85;54.21;96824.22;5026375;28;20062;-76
2021/10/25 08:11:04;;;;;;;10.07;6.97;;;;;;;10.36;50.35;96837.53;5026068;28;20523;-75
2021/10/25 08:13:37;;;;;;;8.35;5.55;;;;;;;10.32;50.52;96836.94;5024447;28;20029;-74
2021/10/25 08:16:10;;;;;;;8.23;5.20;;;;;;;10.42;49.58;96836.97;5024878;28;20080;-75
2021/10/25 08:18:54;;;;;;;9.75;5.78;;;;;;;10.22;50.20;96838.81;5025608;28;20026;-74
2021/10/25 08:21:20;;;;;;;8.98;5.45;;;;;;;10.24;49.52;96840.34;5011150;28;20044;-74
2021/10/25 08:23:47;;;;;;;9.50;5.78;;;;;;;10.29;49.59;96836.38;4992160;28;20031;-75
2021/10/25 08:26:12;;;;;;;12.50;5.70;;;;;;;10.27;50.17;96832.00;5024441;28;20060;-75
2021/10/25 08:28:39;;;;;;;12.98;6.05;;;;;;;10.34;50.41;96835.00;5026495;28;20017;-76
2021/10/25 08:31:06;;;;;;;9.43;5.95;;;;;;;10.35;50.55;96830.47;5007723;28;20112;-75
2021/10/25 08:41:22;;;;;;;8.93;5.82;;;;;;;10.56;49.84;96821.47;5028662;28;20032;-76
2021/10/25 08:43:49;;;;;;;8.57;4.88;;;;;;;10.65;49.80;96831.34;5029506;28;20021;-75
2021/10/25 08:46:15;;;;;;;8.57;5.13;;;;;;;10.73;48.97;96812.69;5012107;28;20507;-75
2021/10/25 08:48:44;;;;;;;8.85;5.22;;;;;;;10.78;48.19;96816.75;5029539;28;20040;-74
2021/10/25 08:51:10;;;;;;;9.07;4.85;;;;;;;10.75;47.17;96818.75;5029481;28;20029;-73
2021/10/25 08:53:36;;;;;;;8.50;4.80;;;;;;;10.82;46.90;96807.41;5012357;28;20061;-73
2021/10/25 08:56:02;;;;;;;9.48;5.70;;;;;;;10.91;47.85;96803.91;5030126;28;20029;-75
2021/10/25 08:58:28;;;;;;;8.27;5.07;;;;;;;10.97;46.92;96800.63;5028017;28;20125;-74
2021/10/25 09:00:55;;;;;;;10.32;4.95;;;;;;;10.98;46.39;96821.09;5027909;28;20125;-75
2021/10/25 09:03:21;;;;;;;7.40;4.80;;;;;;;10.93;46.82;96809.94;5027991;28;20554;-74
2021/10/25 09:06:14;;;;;;;10.13;5.18;;;;;;;11.00;45.87;96819.13;5027474;28;20105;-74
2021/10/25 09:08:40;;;;;;;7.75;4.97;;;;;;;11.10;46.62;96812.88;5026811;28;20447;-74
2021/10/25 09:11:06;;;;;;;7.35;4.63;;;;;;;11.05;45.53;96810.63;5029270;28;20038;-75
2021/10/25 09:13:31;;;;;;;7.82;4.15;;;;;;;11.10;46.08;96811.03;5028795;28;20029;-74
2021/10/25 09:15:58;;;;;;;8.32;4.38;;;;;;;11.19;45.54;96816.50;5029323;28;20029;-74
2021/10/25 09:18:31;;;;;;;7.05;3.75;;;;;;;11.10;44.15;96808.34;5028882;28;20033;-76
2021/10/25 09:21:01;;;;;;;12.27;4.30;;;;;;;11.20;44.26;96805.66;5011473;28;20021;-75
2021/10/25 09:23:28;;;;;;;8.25;4.07;;;;;;;11.29;44.29;96794.97;5010776;28;20044;-74
2021/10/25 09:26:11;;;;;;;9.70;4.45;;;;;;;11.41;45.00;96793.81;5029016;28;20566;-74
2021/10/25 09:28:45;;;;;;;;;;;;;;;11.38;43.50;96778.81;5029271;28;20416;-74
2021/10/25 09:31:16;;;;;;;7.50;3.20;;;;;;;11.27;42.89;96792.44;5028482;28;19913;-74
2021/10/25 09:33:42;;;;;;;6.55;3.58;;;;;;;11.17;43.02;96792.47;5027769;28;20496;-74
2021/10/25 09:36:18;;;;;;;7.20;3.83;;;;;;;11.16;42.80;96785.44;5010267;28;20040;-74
2021/10/25 09:49:12;;;;;;;5.82;3.30;;;;;;;10.92;42.29;96773.38;5027857;28;20099;-75
2021/10/25 09:51:38;;;;;;;5.35;3.88;;;;;;;10.91;42.04;96777.06;5028433;28;20025;-76
2021/10/25 09:54:03;;;;;;;8.10;3.17;;;;;;;10.99;42.87;96774.47;5026688;28;20034;-75
2021/10/25 09:56:34;;;;;;;6.57;3.33;;;;;;;11.10;42.88;96767.22;5026929;28;20033;-76
2021/10/25 10:01:41;;;;;;;4.88;2.95;;;;;;;11.14;43.12;96757.88;5026788;28;20030;-74
2021/10/25 10:04:07;;;;;;;7.60;3.33;;;;;;;11.09;42.82;96742.22;5027139;28;20029;-74
2021/10/25 10:06:33;;;;;;;6.93;3.40;;;;;;;11.22;43.49;96751.78;5026056;28;20525;-75
2021/10/25 10:08:59;;;;;;;4.68;2.88;;;;;;;11.21;42.67;96750.06;5026628;28;20458;-76
2021/10/25 10:11:25;;;;;;;5.28;3.15;;;;;;;11.21;43.34;96753.63;5009944;28;20056;-74
2021/10/25 10:13:50;;;;;;;5.15;2.92;;;;;;;11.23;42.65;96740.91;5026733;28;20025;-75
2021/10/25 10:16:16;;;;;;;5.75;3.20;;;;;;;11.33;42.77;96740.00;5010383;28;20017;-75
2021/10/25 10:18:44;;;;;;;6.25;3.35;;;;;;;11.35;42.16;96729.94;5027558;28;20037;-76
2021/10/25 10:21:11;;;;;;;4.80;3.15;;;;;;;11.39;42.14;96723.28;5010595;28;20592;-75
2021/10/25 10:23:37;;;;;;;7.28;3.20;;;;;;;11.38;41.86;96716.22;5009685;28;20503;-75
2021/10/25 10:26:03;;;;;;;6.22;3.20;;;;;;;11.47;41.40;96726.06;5010186;28;20025;-75
2021/10/25 10:28:40;;;;;;;7.30;3.00;;;;;;;11.52;41.34;96725.59;5025861;28;20029;-75
2021/10/25 10:31:15;;;;;;;7.45;3.95;;;;;;;11.58;41.78;96729.50;5027650;28;20428;-74
2021/10/25 10:33:43;;;;;;;7.57;3.42;;;;;;;11.58;41.66;96722.31;5026160;28;20468;-74
2021/10/25 10:36:17;;;;;;;6.47;3.17;;;;;;;11.43;41.51;96707.72;5027210;28;20029;-76
2021/10/25 10:39:14;;;;;;;11.05;3.60;;;;;;;11.55;42.00;96711.00;5026242;28;20453;-76
2021/10/25 10:41:42;;;;;;;6.20;3.08;;;;;;;11.68;42.51;96703.44;5025898;28;20091;-74
2021/10/25 10:44:15;;;;;;;8.20;3.30;;;;;;;11.77;42.33;96701.66;5027385;28;20109;-75
2021/10/25 10:46:43;;;;;;;6.50;3.08;;;;;;;11.87;41.69;96701.59;5026359;28;20103;-74
2021/10/25 10:49:38;;;;;;;6.40;3.33;;;;;;;11.83;41.85;96694.84;5025972;28;20037;-74
2021/10/25 10:52:20;;;;;;;5.38;3.10;;;;;;;11.95;41.41;96698.97;5026168;28;20033;-75
2021/10/25 10:55:09;;;;;;;6.30;3.40;;;;;;;11.90;41.89;96693.22;5026822;28;20415;-74
2021/10/25 11:00:09;;;;;;;6.75;3.42;;;;;;;11.96;41.65;96684.53;5027575;28;20039;-75
2021/10/25 11:02:35;;;;;;;11.32;3.40;;;;;;;11.99;41.96;96683.38;5024755;28;20092;-75
2021/10/25 11:05:05;;;;;;;6.43;3.10;;;;;;;12.06;41.44;96680.94;5026908;28;20021;-75
2021/10/25 11:07:32;;;;;;;3.97;2.85;;;;;;;12.14;41.05;96677.47;5025163;28;20053;-75
2021/10/25 11:10:00;;;;;;;7.93;3.17;;;;;;;12.16;40.94;96667.41;5026825;28;20029;-75
2021/10/25 11:12:26;;;;;;;6.00;3.30;;;;;;;12.27;41.87;96667.16;5025739;28;20033;-76
2021/10/25 11:14:52;;;;;;;6.35;3.25;;;;;;;12.30;40.84;96677.59;5025088;28;20451;-77
2021/10/25 11:17:24;;;;;;;6.70;2.88;;;;;;;12.32;41.12;96658.59;5009512;28;20041;-76
2021/10/25 11:19:51;;;;;;;6.05;2.90;;;;;;;12.34;40.96;96657.47;5026267;28;20033;-76
2021/10/25 11:22:29;;;;;;;4.03;2.78;;;;;;;12.40;40.91;96642.50;5025556;28;20029;-74
2021/10/25 11:24:55;;;;;;;4.65;3.30;;;;;;;12.35;41.05;96644.84;5026111;28;20045;-74
2021/10/25 11:27:31;;;;;;;5.22;2.85;;;;;;;12.38;41.42;96652.59;5026857;28;20022;-75
2021/10/25 11:30:17;;;;;;;6.47;3.67;;;;;;;12.40;41.30;96642.50;5025417;28;20072;-75
2021/10/25 11:32:43;;;;;;;4.35;2.88;;;;;;;12.38;40.86;96644.50;5026137;28;20053;-74
2021/10/25 11:35:12;;;;;;;8.13;3.00;;;;;;;12.45;41.07;96626.75;5025037;28;20108;-73
2021/10/25 11:37:38;;;;;;;6.25;3.17;;;;;;;12.47;40.69;96631.97;5024708;28;20056;-76
2021/10/25 11:40:06;;;;;;;12.43;4.10;;;;;;;12.48;40.41;96629.13;5008702;28;20388;-74
2021/10/25 11:42:42;;;;;;;5.30;3.03;;;;;;;12.52;41.02;96623.41;5025425;28;20431;-74
2021/10/25 11:45:13;;;;;;;4.93;2.90;;;;;;;12.64;40.56;96630.19;5008521;28;20032;-76
2021/10/25 11:47:43;;;;;;;6.22;3.20;;;;;;;12.64;40.50;96622.13;5009023;28;20576;-77
2021/10/25 11:50:14;;;;;;;5.07;3.20;;;;;;;12.64;40.53;96616.75;5024366;28;20036;-74
2021/10/25 11:52:59;;;;;;;3.92;2.72;;;;;;;12.68;39.65;96619.97;5026427;28;20021;-75
2021/10/25 11:55:30;;;;;;;7.15;3.60;;;;;;;12.82;40.23;96619.34;5010328;28;20021;-75
2021/10/25 11:58:06;;;;;;;4.85;2.70;;;;;;;12.91;39.34;96612.16;5024568;28;20659;-75
2021/10/25 12:00:40;;;;;;;5.15;2.97;;;;;;;12.98;39.02;96606.94;5009031;28;20025;-76
2021/10/25 12:03:16;;;;;;;4.78;2.50;;;;;;;13.08;38.71;96609.50;5024362;28;20101;-76
2021/10/25 12:05:41;;;;;;;5.45;2.90;;;;;;;13.07;38.39;96605.13;5025187;28;20034;-74
2021/10/25 12:08:11;;;;;;;6.63;2.80;;;;;;;13.10;38.03;96600.28;5024195;28;20183;-75
2021/10/25 12:10:37;;;;;;;4.80;2.65;;;;;;;13.19;38.69;96600.28;5024817;28;20110;-76
2021/10/25 12:13:04;;;;;;;8.18;3.20;;;;;;;13.25;38.22;96596.09;5008431;28;20036;-77
2021/10/25 12:15:31;;;;;;;5.97;2.70;;;;;;;13.22;37.65;96587.31;5012325;28;20037;-76
2021/10/25 12:18:02;;;;;;;6.07;2.80;;;;;;;13.21;38.21;96601.81;5029132;28;20029;-76
2021/10/25 12:20:30;;;;;;;5.82;2.70;;;;;;;13.25;37.54;96602.31;5028612;28;20075;-77
2021/10/25 12:23:10;;;;;;;4.80;2.90;;;;;;;13.27;37.74;96591.38;5030200;28;20100;-75
2021/10/25 12:25:36;;;;;;;5.20;3.45;;;;;;;13.32;38.75;96587.19;5029882;28;20453;-76
2021/10/25 12:28:19;;;;;;;10.00;2.65;;;;;;;13.46;38.20;96591.06;5028848;28;20480;-76
2021/10/25 12:30:45;;;;;;;8.52;2.70;;;;;;;13.55;37.48;96585.72;5028978;28;20053;-75
2021/10/25 12:33:11;;;;;;;5.72;3.15;;;;;;;13.58;37.66;96590.78;5028015;28;20033;-77
2021/10/25 12:35:36;;;;;;;5.47;2.75;;;;;;;13.70;36.73;96577.81;5012034;28;20243;-75
2021/10/25 12:38:04;;;;;;;6.72;2.50;;;;;;;13.76;37.61;96577.13;5029232;28;20037;-75
2021/10/25 12:40:38;;;;;;;5.70;2.50;;;;;;;13.86;36.52;96574.28;5028668;28;20041;-75
2021/10/25 12:43:03;;;;;;;5.90;2.70;;;;;;;13.80;35.60;96567.69;5029729;28;20032;-77
2021/10/25 12:45:39;;;;;;;5.65;3.35;;;;;;;13.81;36.27;96568.53;5028078;28;20412;-76
2021/10/25 12:48:05;;;;;;;7.63;2.53;;;;;;;13.91;36.28;96573.75;5028735;28;20507;-74
2021/10/25 12:50:32;;;;;;;5.85;2.70;;;;;;;13.93;36.39;96561.78;5027986;28;20028;-76
2021/10/25 12:52:57;;;;;;;8.60;2.83;;;;;;;13.95;35.80;96557.06;5029689;28;20545;-76
2021/10/25 12:55:23;;;;;;;4.05;2.30;;;;;;;13.88;35.23;96558.75;5028807;28;20112;-75
2021/10/25 12:57:48;;;;;;;4.55;2.35;;;;;;;13.90;35.21;96556.72;5028204;28;20026;-75
2021/10/25 13:00:15;;;;;;;4.47;2.33;;;;;;;14.00;35.86;96550.31;5027532;28;20033;-74
2021/10/25 13:02:48;;;;;;;6.88;2.45;;;;;;;14.13;35.22;96547.94;5011718;28;20112;-74
2021/10/25 13:05:15;;;;;;;5.57;3.00;;;;;;;14.27;34.95;96550.91;5027888;28;20025;-74
2021/10/25 13:07:51;;;;;;;6.57;2.50;;;;;;;14.37;34.92;96551.56;5028823;28;20056;-75
2021/10/25 13:10:18;;;;;;;4.57;2.60;;;;;;;14.48;34.94;96549.53;5027864;28;20033;-75
2021/10/25 13:12:44;;;;;;;4.93;2.60;;;;;;;14.59;34.62;96557.22;5027528;28;20045;-77
2021/10/25 13:15:09;;;;;;;7.10;2.95;;;;;;;14.68;33.88;96549.94;5027915;28;20025;-75
2021/10/25 13:17:35;;;;;;;4.53;2.72;;;;;;;14.76;33.86;96554.47;5028550;28;20559;-77
2021/10/25 13:20:00;;;;;;;4.90;2.10;;;;;;;14.79;33.40;96551.41;5028874;28;20033;-75
2021/10/25 13:22:29;;;;;;;5.07;2.50;;;;;;;14.80;32.72;96550.41;5027649;28;20540;-75
2021/10/25 13:24:54;;;;;;;5.10;2.50;;;;;;;14.83;32.57;96550.91;5028059;28;20026;-75
2021/10/25 13:27:20;;;;;;;4.25;1.95;;;;;;;14.73;32.63;96538.59;5027528;28;20021;-76